Aérodrome :
LOGIN :

S'inscrire | Disclaimer

   EN    FR    IT 

 










Légende :    VFR   VFR Marginal   IFR   IFR Intensif   IFR Très Intensif
Visi : 
Plafond : 
>= 8 km
>= 3000ft
5 à 8 km
1000 à 3000 ft
1500m à 5 km
500 à 1000 ft
800 à 1500m
200 à 500 ft
< 800m
< 200 ft
Symboles :   Orages  Brouillard  Fortes neiges  Fortes précipitations  Vent > 20 kt
SIGMETs :   Divers  Orages  Givrage  Turbulence  Onde Orograph.  Cendres Volcan.






- Altitude de l'aérodrome : 1470 ft


LSMD - Dubendorf Military

DERNIER METAR :
  • 151550Z AUTO 17005KT 9999NDV FEW100 BKN130 11/05 Q1010 RMK

METARs EXPIRÉS :
  • 151520Z AUTO 15005KT 9999NDV BKN092 11/06 Q1009 RMK
  • 151450Z AUTO VRB02KT 9999NDV FEW069 BKN100 12/06 Q1009 RMK
  • 151420Z AUTO 27007KT 190V340 9999NDV BKN085 OVC100 14/05 Q1009 RMK
  • 151350Z AUTO VRB06KT 9999NDV OVC084 14/05 Q1009 RMK
  • 151320Z AUTO VRB03KT 9999NDV FEW078 BKN089 12/05 Q1009 RMK
  • 151250Z AUTO 17005KT 130V200 9999NDV FEW070 BKN089 13/06 Q1008 RMK

Prévision TAF périmée.



MET'MAP, la Météo Aéronautique d'un coup d'oeil ! - Copyright ORBIFLY Décembre 2007 - Disclaimer

ORBIFLY MET'MAP TEAM :

Programmation & Développement : Alexandra Zaïnal
Sur une idée originale de : Baudouin d'Aumeries
Assistance à la programmation : Marc-Olivier Méhu
Soutien technique & logistique : Manuel Goepfert

Contact : metmap@orbifly.com




SOURCES & CREDITS :

   NOAA